createdAt,value
2023-03-18T00:01:11.040Z,11.40
2023-03-18T00:03:39.693Z,12.75
2023-03-18T00:06:10.422Z,11.35
2023-03-18T00:08:39.301Z,10.57
2023-03-18T00:11:12.903Z,11.65
2023-03-18T00:13:41.463Z,14.68
2023-03-18T00:16:16.629Z,8.30
2023-03-18T00:18:44.756Z,11.95
2023-03-18T00:21:13.011Z,11.50
2023-03-18T00:23:41.249Z,10.00
2023-03-18T00:26:11.837Z,9.23
2023-03-18T00:28:39.918Z,9.20
2023-03-18T00:31:10.205Z,14.00
2023-03-18T00:33:40.000Z,8.90
2023-03-18T00:36:10.048Z,10.82
2023-03-18T00:38:41.063Z,9.13
2023-03-18T00:41:15.776Z,13.10
2023-03-18T00:43:52.343Z,15.93
2023-03-18T00:46:22.581Z,11.27
2023-03-18T00:48:51.229Z,10.52
2023-03-18T00:51:20.584Z,11.40
2023-03-18T00:53:53.056Z,12.70
2023-03-18T00:58:52.657Z,10.90
2023-03-18T01:01:21.285Z,10.32
2023-03-18T01:03:50.308Z,12.15
2023-03-18T01:06:22.620Z,11.38
2023-03-18T01:08:51.634Z,15.85
2023-03-18T01:11:19.571Z,11.35
2023-03-18T01:13:49.525Z,12.73
2023-03-18T01:16:17.994Z,12.48
2023-03-18T01:18:46.755Z,12.40
2023-03-18T01:21:15.540Z,9.20
2023-03-18T01:23:43.541Z,17.73
2023-03-18T01:26:11.693Z,12.95
2023-03-18T01:28:39.653Z,11.45
2023-03-18T01:31:09.209Z,11.65
2023-03-18T01:33:37.277Z,12.32
2023-03-18T01:36:06.009Z,10.25
2023-03-18T01:38:34.181Z,10.48
2023-03-18T01:41:02.989Z,8.95
2023-03-18T01:43:35.213Z,12.48
2023-03-18T01:46:35.972Z,11.20
2023-03-18T01:49:08.616Z,13.55
2023-03-18T01:51:36.732Z,11.88
2023-03-18T01:54:07.440Z,13.07
2023-03-18T01:56:39.540Z,11.32
2023-03-18T01:59:09.730Z,12.65
2023-03-18T02:01:44.972Z,14.07
2023-03-18T02:06:42.395Z,13.88
2023-03-18T02:09:11.078Z,10.57
2023-03-18T02:11:42.546Z,13.88
2023-03-18T02:14:15.295Z,12.07
2023-03-18T02:16:48.989Z,15.63
2023-03-18T02:19:29.778Z,12.02
2023-03-18T02:22:06.157Z,10.90
2023-03-18T02:24:42.454Z,14.60
2023-03-18T02:27:18.929Z,9.65
2023-03-18T02:29:47.783Z,8.35
2023-03-18T02:32:17.623Z,12.77
2023-03-18T02:34:46.449Z,9.10
2023-03-18T02:37:14.331Z,10.70
2023-03-18T02:39:42.206Z,12.82
2023-03-18T02:42:13.033Z,9.57
2023-03-18T02:44:45.162Z,15.10
2023-03-18T02:47:18.013Z,7.95
2023-03-18T02:49:46.129Z,12.50
2023-03-18T02:52:14.051Z,11.93
2023-03-18T02:54:41.984Z,9.35
2023-03-18T02:57:10.070Z,8.40
2023-03-18T02:59:37.957Z,7.35
2023-03-18T03:02:07.741Z,9.70
2023-03-18T03:04:35.632Z,12.00
2023-03-18T03:28:10.299Z,9.32
2023-03-18T03:39:13.511Z,11.68
2023-03-18T03:41:41.553Z,9.57
2023-03-18T03:44:09.492Z,8.48
2023-03-18T03:47:52.534Z,7.43
2023-03-18T04:16:39.411Z,12.85
2023-03-18T04:19:10.117Z,11.23
2023-03-18T04:21:38.735Z,12.88
2023-03-18T04:24:07.574Z,8.32
2023-03-18T04:26:36.666Z,11.23
2023-03-18T04:29:04.832Z,11.85
2023-03-18T04:31:34.164Z,10.23
2023-03-18T04:34:02.136Z,9.95
2023-03-18T04:36:30.038Z,10.32
2023-03-18T04:38:58.193Z,10.93
2023-03-18T04:41:26.194Z,12.00
2023-03-18T04:43:54.471Z,9.38
2023-03-18T04:46:22.509Z,11.60
2023-03-18T04:48:52.170Z,9.82
2023-03-18T04:51:20.658Z,8.30
2023-03-18T04:53:48.630Z,13.27
2023-03-18T04:56:16.563Z,8.00
2023-03-18T04:58:44.695Z,10.15
2023-03-18T05:01:13.154Z,11.45
2023-03-18T05:03:41.521Z,10.65
2023-03-18T05:06:21.720Z,9.00
2023-03-18T05:08:49.816Z,7.13
2023-03-18T05:11:17.799Z,11.23
2023-03-18T05:13:45.811Z,10.75
2023-03-18T05:16:13.994Z,8.27
2023-03-18T05:18:45.258Z,8.38
2023-03-18T05:21:14.736Z,9.10
2023-03-18T05:23:42.863Z,8.43
2023-03-18T05:26:11.534Z,9.77
2023-03-18T05:28:40.385Z,9.43
2023-03-18T05:31:08.524Z,8.75
2023-03-18T05:33:36.491Z,10.60
2023-03-18T05:36:04.746Z,9.55
2023-03-18T05:38:33.993Z,6.88
2023-03-18T05:41:01.935Z,8.48
2023-03-18T05:43:29.866Z,6.38
2023-03-18T05:45:57.780Z,9.15
2023-03-18T05:48:26.942Z,7.30
2023-03-18T05:50:54.884Z,7.75
2023-03-18T05:53:23.571Z,13.43
2023-03-18T05:55:52.912Z,10.23
2023-03-18T05:58:21.059Z,11.07
2023-03-18T06:00:50.495Z,9.55
2023-03-18T06:04:24.214Z,8.95
2023-03-18T06:08:54.176Z,9.82
2023-03-18T06:16:15.582Z,8.80
2023-03-18T06:24:26.916Z,7.05
2023-03-18T06:28:35.355Z,8.95
2023-03-18T07:08:43.604Z,10.55
2023-03-18T07:25:34.687Z,5.80
2023-03-18T07:28:04.992Z,8.07
2023-03-18T07:30:33.919Z,6.78
2023-03-18T07:33:02.340Z,6.38
2023-03-18T07:35:30.422Z,6.53
2023-03-18T07:37:59.579Z,5.22
2023-03-18T07:40:27.576Z,7.47
2023-03-18T07:42:55.580Z,7.15
2023-03-18T07:45:23.854Z,5.30
2023-03-18T07:47:51.720Z,11.65
2023-03-18T07:50:19.819Z,5.00
2023-03-18T07:52:48.130Z,4.57
2023-03-18T07:55:17.541Z,5.32
2023-03-18T07:57:45.388Z,6.10
2023-03-18T08:00:14.863Z,8.82
2023-03-18T08:02:43.188Z,17.55
2023-03-18T08:05:11.840Z,13.35
2023-03-18T08:07:39.807Z,5.78
2023-03-18T08:10:09.993Z,8.77
2023-03-18T08:12:52.077Z,8.20
2023-03-18T08:15:20.399Z,7.93
2023-03-18T08:17:48.311Z,7.07
2023-03-18T08:20:16.527Z,6.10
2023-03-18T08:22:45.926Z,4.28
2023-03-18T08:25:14.291Z,4.95
2023-03-18T08:27:43.876Z,5.88
2023-03-18T08:30:13.669Z,9.40
2023-03-18T08:32:41.971Z,6.30
2023-03-18T08:35:11.245Z,4.95
2023-03-18T08:37:39.260Z,4.28
2023-03-18T08:40:09.769Z,3.00
2023-03-18T08:42:37.713Z,3.63
2023-03-18T08:45:08.233Z,3.05
2023-03-18T08:47:36.225Z,5.20
2023-03-18T08:50:04.333Z,4.25
2023-03-18T08:52:32.365Z,4.43
2023-03-18T08:55:02.697Z,1.88
2023-03-18T08:57:32.027Z,3.50
2023-03-18T09:00:00.106Z,3.05
2023-03-18T09:02:30.141Z,2.75
2023-03-18T09:04:58.665Z,3.15
2023-03-18T09:07:27.410Z,6.75
2023-03-18T09:09:55.528Z,2.35
2023-03-18T09:12:24.828Z,3.22
2023-03-18T09:14:52.921Z,2.40
2023-03-18T09:17:23.634Z,6.90
2023-03-18T09:19:58.664Z,3.13
2023-03-18T09:22:27.798Z,3.63
2023-03-18T09:24:57.184Z,6.18
2023-03-18T09:27:25.797Z,4.90
2023-03-18T09:29:54.208Z,6.88
2023-03-18T09:32:22.268Z,5.18
2023-03-18T09:34:50.709Z,3.45
2023-03-18T09:37:20.591Z,2.40
2023-03-18T09:39:48.975Z,8.25
2023-03-18T09:42:38.000Z,4.50
2023-03-18T09:45:17.271Z,3.80
2023-03-18T09:48:14.780Z,6.82
2023-03-18T09:50:48.802Z,6.45
2023-03-18T09:53:25.185Z,6.70
2023-03-18T09:55:58.200Z,2.88
2023-03-18T09:58:32.546Z,1.98
2023-03-18T10:01:03.346Z,2.45
2023-03-18T10:03:37.483Z,3.05
2023-03-18T10:06:09.700Z,3.75
2023-03-18T10:08:50.105Z,4.70
2023-03-18T10:11:25.645Z,9.00
2023-03-18T10:14:12.182Z,2.22
2023-03-18T10:16:53.051Z,4.00
2023-03-18T10:19:21.223Z,2.72
2023-03-18T10:21:56.126Z,5.22
2023-03-18T10:24:38.044Z,4.00
2023-03-18T10:27:15.281Z,5.63
2023-03-18T10:29:51.101Z,18.80
2023-03-18T10:32:46.373Z,5.45
2023-03-18T17:31:55.437Z,4.80
2023-03-18T17:34:24.067Z,6.50
2023-03-18T17:40:20.981Z,3.97
2023-03-18T17:42:53.231Z,3.40
2023-03-18T17:45:27.959Z,2.85
2023-03-18T17:48:13.937Z,4.47
2023-03-18T17:50:42.580Z,3.85
2023-03-18T17:53:25.513Z,5.00
2023-03-18T17:55:54.852Z,5.47
2023-03-18T17:58:27.667Z,9.85
2023-03-18T18:01:02.197Z,3.70
2023-03-18T18:03:32.832Z,4.75
2023-03-18T18:06:04.064Z,6.63
2023-03-18T18:08:34.570Z,5.03
2023-03-18T18:11:11.795Z,8.55
2023-03-18T18:13:40.058Z,5.28
2023-03-18T18:16:08.140Z,4.75
2023-03-18T18:18:41.387Z,7.07
2023-03-18T18:21:15.478Z,8.68
2023-03-18T18:23:45.428Z,7.97
2023-03-18T18:26:16.534Z,8.05
2023-03-18T18:28:47.512Z,9.18
2023-03-18T18:31:19.278Z,6.35
2023-03-18T18:33:50.522Z,7.82
2023-03-18T18:36:19.039Z,7.80
2023-03-18T18:38:52.880Z,12.85
2023-03-18T18:41:25.958Z,12.05
2023-03-18T18:43:55.609Z,10.82
2023-03-18T18:46:24.478Z,10.68
2023-03-18T18:48:54.417Z,11.80
2023-03-18T18:51:40.657Z,10.80
2023-03-18T18:54:41.495Z,9.18
2023-03-18T18:57:24.506Z,10.85
2023-03-18T18:59:54.973Z,12.65
2023-03-18T19:02:35.592Z,9.18
2023-03-18T19:05:08.903Z,9.65
2023-03-18T19:21:42.899Z,8.27
2023-03-18T19:25:35.701Z,6.88
2023-03-18T19:29:19.684Z,6.63
2023-03-18T19:34:34.862Z,8.40
2023-03-18T19:37:05.874Z,6.80
2023-03-18T19:39:36.585Z,7.40
2023-03-18T19:42:28.308Z,11.70
2023-03-18T19:44:58.686Z,9.27
2023-03-18T19:47:29.007Z,11.32
2023-03-18T19:49:57.240Z,5.80
2023-03-18T19:52:28.602Z,8.70
2023-03-18T19:54:57.766Z,8.60
2023-03-18T19:57:28.182Z,11.80
2023-03-18T19:59:59.360Z,9.90
2023-03-18T20:02:30.802Z,9.13
2023-03-18T20:05:00.616Z,13.18
2023-03-18T20:07:32.594Z,12.23
2023-03-18T20:10:08.635Z,9.43
2023-03-18T20:12:38.600Z,8.93
2023-03-18T20:15:08.583Z,7.13
2023-03-18T20:17:41.875Z,8.73
2023-03-18T20:20:16.475Z,12.73
2023-03-18T20:22:48.266Z,10.27
2023-03-18T20:25:23.065Z,15.02
2023-03-18T20:27:54.817Z,9.20
2023-03-18T20:30:29.209Z,16.58
2023-03-18T20:32:58.159Z,15.10
2023-03-18T20:35:29.519Z,14.45
2023-03-18T20:38:01.394Z,12.15
2023-03-18T20:40:30.396Z,14.00
2023-03-18T20:42:58.989Z,11.95
2023-03-18T20:45:27.268Z,13.05
2023-03-18T20:47:59.804Z,12.05
2023-03-18T20:50:30.844Z,9.98
2023-03-18T20:53:03.743Z,12.15
2023-03-18T20:55:40.148Z,11.20
2023-03-18T20:58:14.543Z,13.18
2023-03-18T21:00:43.759Z,10.55
2023-03-18T21:03:25.322Z,10.68
2023-03-18T21:05:56.177Z,10.38
2023-03-18T21:08:26.670Z,11.00
2023-03-18T21:10:55.596Z,12.13
2023-03-18T21:13:30.909Z,9.82
2023-03-18T21:16:00.729Z,11.68
2023-03-18T21:18:29.157Z,11.70
2023-03-18T21:21:00.742Z,12.07
2023-03-18T21:23:32.802Z,10.40
2023-03-18T21:26:05.189Z,12.57
2023-03-18T21:28:40.874Z,11.35
2023-03-18T21:31:23.025Z,12.98
2023-03-18T21:33:51.549Z,6.55
2023-03-18T21:36:20.097Z,13.10
2023-03-18T21:38:52.735Z,9.30
2023-03-18T21:41:25.204Z,12.32
2023-03-18T21:46:27.260Z,11.90
2023-03-18T21:48:55.857Z,11.05
2023-03-18T21:51:39.206Z,7.35
2023-03-18T21:54:20.688Z,11.10
2023-03-18T21:56:48.719Z,11.45
2023-03-18T21:59:17.109Z,14.20
2023-03-18T22:01:45.430Z,11.88
2023-03-18T22:04:13.594Z,9.70
2023-03-18T22:06:41.710Z,9.43
2023-03-18T22:09:11.053Z,10.02
2023-03-18T22:11:39.213Z,12.52
2023-03-18T22:14:07.549Z,10.18
2023-03-18T22:16:35.742Z,12.48
2023-03-18T22:19:07.322Z,13.73
2023-03-18T22:21:35.789Z,17.58
2023-03-18T22:24:03.804Z,15.38
2023-03-18T22:26:33.366Z,12.35
2023-03-18T22:29:01.472Z,15.32
2023-03-18T22:31:29.572Z,14.60
2023-03-18T22:33:58.190Z,11.32
2023-03-18T22:36:28.791Z,14.27
2023-03-18T22:38:56.956Z,11.05
2023-03-18T22:41:29.505Z,12.63
2023-03-18T22:46:29.907Z,12.23
2023-03-18T22:49:19.555Z,15.07
2023-03-18T22:52:13.365Z,13.27
2023-03-18T22:54:56.894Z,11.55
2023-03-18T22:58:04.528Z,10.80
2023-03-18T23:01:06.211Z,13.35
2023-03-18T23:04:04.510Z,14.32
2023-03-18T23:12:00.785Z,10.65
2023-03-18T23:14:29.143Z,11.73
2023-03-18T23:16:58.496Z,14.40
2023-03-18T23:19:26.383Z,13.95
2023-03-18T23:21:54.277Z,14.43
2023-03-18T23:24:22.174Z,17.48
2023-03-18T23:26:50.124Z,9.30
2023-03-18T23:29:18.014Z,12.38
2023-03-18T23:31:46.875Z,14.73
2023-03-18T23:34:18.845Z,13.07
2023-03-18T23:36:49.595Z,17.38
2023-03-18T23:39:17.451Z,9.48
2023-03-18T23:41:45.816Z,11.52
2023-03-18T23:44:13.695Z,13.25
2023-03-18T23:46:42.139Z,11.13
2023-03-18T23:49:10.081Z,14.20
2023-03-18T23:51:39.634Z,14.32
2023-03-18T23:54:08.192Z,18.67
2023-03-18T23:56:37.792Z,13.40
2023-03-18T23:59:05.768Z,13.52
